Latest Coastal Weather Observations for Sydney Airport

IDN60701

Issued at 4:32 pm EDT Thursday 25 February 2021 (issued every 10 minutes, with the page automatically refreshed every 10 minutes)

About coastal observations | Map of coastal stations | Coastal observations for NSW | Marine services | Other Formats
Station Details ID: 066037 Name: SYDNEY AIRPORT AMO Lat: -33.95 Lon: 151.17 Height: 6.0 m
Data from the previous 72 hours. | See also: Recent months at Sydney Airport
Date/Time
EDT
Wind Sea
Height
m
Swell Vis
km
Cloud Weather Temp
°C
Press
MSL
hPa
Rain since
9am
mm
Dir  Spd
kts
Gust
kts
Height
m
Period
s
Dir
25/04:00pm NE 11 14 - - - - 10 Mostly clear - 22.7 1008.9 2.8
25/03:30pm SE 7 8 - - - - 10 Mostly clear Showers 22.3 1009.7 2.8
25/03:00pm S 8 10 - - - - 15 Cloudy Recent precip. 21.9 1010.4 2.8
25/02:30pm E 7 9 - - - - 10 Mostly clear Thunder 22.5 1010.2 2.8
25/02:00pm E 6 8 - - - - 10 Mostly clear - 23.4 1011.0 2.8
25/01:30pm E 5 6 - - - - 10 Mostly clear - 21.9 1011.2 2.8
25/01:00pm SSW 6 9 - - - - 10 Mostly clear - 20.8 1011.3 2.8
25/12:40pm SSW 5 6 - - - - 8 Mostly clear Thunder 20.5 1011.7 2.8
25/12:30pm W 5 8 - - - - 8 Mostly clear Thunderstorm 20.2 1011.8 2.8
25/12:00pm ENE 6 8 - - - - 14 Mostly cloudy Showers 20.1 1011.3 1.8
25/11:30am W 6 9 - - - - 7 Mostly clear Showers 19.6 1011.7 1.0
25/11:25am WNW 6 8 - - - - 6 Mostly clear Thunderstorm 19.8 1012.0 0.4
25/11:05am W 5 6 - - - - 10 Partly cloudy Thunderstorm 20.2 1012.5 0.0
25/11:00am WNW 5 7 - - - - 10 Mostly clear - 19.6 1012.0 0.0
25/10:41am W 5 8 - - - - 10 Partly cloudy Showers 20.1 1012.5 0.0
25/10:30am NW 5 6 - - - - 10 Partly cloudy Rain 20.0 1012.1 0.0
25/10:09am WNW 4 5 - - - - 10 Partly cloudy - 19.8 1012.4 0.0
25/10:00am WNW 5 6 - - - - 10 Mostly clear - 19.4 1012.0 0.0
25/09:30am WNW 6 8 - - - - 10 Mostly clear - 19.0 1011.4 0.0
25/09:23am WNW 7 8 - - - - 10 Partly cloudy - 19.5 1011.5 0.0
25/09:00am WNW 6 8 - - - - 18 Mostly cloudy Haze 19.3 1011.4 3.8
25/08:30am WNW 5 7 - - - - 10 Mostly clear - 19.4 1011.5 3.8
25/08:00am NNW 7 8 - - - - 10 Mostly clear - 20.5 1011.4 3.8
25/07:30am NNW 3 5 - - - - 10 Mostly clear - 20.1 1011.2 3.8
25/07:00am NNW 5 6 - - - - 10 Mostly clear - 19.5 1011.1 3.6
25/06:30am NNW 5 6 - - - - 10 Mostly clear - 19.3 1010.8 3.6
25/06:00am NNW 7 7 - - - - 25 Partly cloudy Haze 19.1 1011.0 3.6
25/05:30am N 6 6 - - - - 10 Mostly clear - 18.8 1011.0 3.6
25/05:00am NNW 6 6 - - - - 10 Mostly clear - 18.7 1011.1 3.4
25/04:30am NNW 6 6 - - - - 10 Mostly clear - 18.9 1011.2 3.4
25/04:00am N 4 5 - - - - 10 Mostly clear - 19.3 1011.5 3.4
25/03:30am W 4 4 - - - - 10 Mostly clear - 19.3 1012.0 3.4
25/03:00am WSW 5 8 - - - - 20 Mostly clear Haze 19.4 1012.0 3.4
25/02:30am WSW 4 5 - - - - 10 Mostly clear - 19.4 1012.4 3.4
25/02:00am W 4 4 - - - - 10 Mostly clear - 19.7 1012.8 3.4
25/01:30am SSW 5 6 - - - - 10 Mostly clear - 19.8 1013.3 3.4
25/01:00am WSW 4 5 - - - - 10 Mostly clear - 19.8 1013.8 3.4
25/12:30am W 4 4 - - - - 10 Mostly clear - 19.7 1014.2 3.4
25/12:00am CALM 0 0 - - - - 25 Mostly cloudy Fine 19.5 1014.2 3.4
 
Date/Time
EDT
Wind Sea
Height
m
Swell Vis
km
Cloud Weather Temp
°C
Press
MSL
hPa
Rain since
9am
mm
Dir  Spd
kts
Gust
kts
Height
m
Period
s
Dir
24/11:30pm CALM 0 1 - - - - 10 Partly cloudy - 20.5 1014.7 3.4
24/11:00pm WNW 3 4 - - - - 10 Mostly clear - 19.9 1014.9 3.4
24/10:30pm SW 5 6 - - - - 10 Partly cloudy - 19.8 1015.2 3.4
24/10:00pm SSW 4 9 - - - - 10 Mostly clear - 19.9 1015.5 3.4
24/09:30pm SSE 4 6 - - - - 10 Mostly clear Showers 19.9 1015.6 3.4
24/09:00pm SSE 6 7 - - - - 20 Mostly cloudy Distant precip. 19.7 1015.5 3.4
24/08:30pm SE 7 10 - - - - 10 Mostly clear Showers 19.9 1015.5 3.4
24/08:00pm S 9 11 - - - - 10 Mostly clear - 20.3 1015.6 3.0
24/07:30pm S 11 18 - - - - 10 Mostly clear - 20.3 1015.4 3.0
24/07:00pm S 12 15 - - - - 10 Mostly clear - 20.3 1015.3 3.0
24/06:30pm S 11 15 - - - - 10 Mostly clear - 20.7 1015.1 3.0
24/06:00pm S 13 16 - - - - 20 Mostly cloudy Fine 20.8 1015.3 3.0
24/05:30pm S 15 18 - - - - 10 Mostly clear - 20.7 1015.3 3.0
24/05:00pm S 14 18 - - - - 10 Mostly clear - 21.0 1015.3 3.0
24/04:30pm S 14 17 - - - - 10 Mostly clear - 20.5 1015.5 3.0
24/04:00pm S 13 17 - - - - 10 Mostly clear - 20.5 1015.7 3.0
24/03:30pm S 16 19 - - - - 10 Mostly clear - 19.9 1015.8 3.0
24/03:00pm S 14 17 - - - - 20 Mostly cloudy Recent precip. 19.6 1016.4 3.0
24/02:30pm SSW 13 16 - - - - 8 Mostly clear Showers 19.4 1017.0 2.6
24/02:00pm S 15 18 - - - - 6 Mostly clear - 19.3 1017.4 1.4
24/01:40pm S 13 17 - - - - 6 Mostly clear Showers 19.3 1017.5 1.0
24/01:30pm S 14 18 - - - - 4 Mostly clear Showers 19.6 1017.5 0.6
24/01:25pm S 15 18 - - - - 4 Mostly clear Showers 20.0 1017.5 0.0
24/01:00pm S 16 20 - - - - 10 Mostly clear - 20.2 1017.7 0.0
24/12:30pm S 15 20 - - - - 10 Mostly clear - 20.1 1017.9 0.0
24/12:00pm S 13 16 - - - - 25 Mostly cloudy Distant precip. 20.8 1018.1 0.0
24/11:30am S 14 16 - - - - 10 Mostly clear - 19.9 1018.5 0.0
24/11:00am SSW 13 16 - - - - 10 Mostly clear - 19.9 1018.6 0.0
24/10:30am SSW 15 17 - - - - 10 Mostly clear Showers 19.5 1018.5 0.0
24/10:00am SSW 16 20 - - - - 10 Mostly clear - 18.7 1018.4 0.0
24/09:30am SSW 15 19 - - - - 10 Mostly clear - 18.6 1018.4 0.0
24/09:00am SSW 15 19 - - - - 15 Mostly cloudy Recent precip. 18.4 1018.0 40.2
24/08:30am SSW 15 18 - - - - 10 Partly cloudy Showers 18.0 1017.8 40.2
24/08:00am SSW 17 21 - - - - 6 Partly cloudy - 17.9 1017.8 39.0
24/07:30am WSW 8 11 - - - - 6 Mostly clear Showers 17.3 1017.8 38.2
24/07:10am WSW 9 12 - - - - 6 Mostly clear Showers 17.4 1017.6 36.8
24/07:00am W 9 12 - - - - 3 Mostly clear - 17.4 1017.5 35.6
24/06:50am W 9 12 - - - - 2 Mostly clear Showers 17.1 1017.3 31.0
24/06:30am WSW 9 15 - - - - 2 Mostly clear Showers 17.0 1016.8 21.6
24/06:00am SW 15 18 - - - - 6 Cloudy Showers 17.3 1016.3 16.8
24/05:30am SW 14 18 - - - - 10 Mostly clear - 17.5 1016.1 16.8
24/05:07am SW 13 17 - - - - 10 Mostly clear Showers 17.4 1016.2 16.8
24/05:00am SW 13 17 - - - - 10 Mostly clear - 17.4 1016.2 16.8
24/04:49am SW 12 15 - - - - 6 Mostly clear Showers 17.4 1016.2 16.6
24/04:30am WSW 10 14 - - - - 10 Mostly clear - 17.8 1016.3 15.0
24/04:00am SE 11 15 - - - - 10 Mostly clear - 18.5 1016.2 15.0
24/03:30am S 12 16 - - - - 10 Mostly clear - 18.5 1016.3 14.8
24/03:00am SSE 14 17 - - - - 15 Cloudy Distant precip. 18.9 1016.4 14.8
24/02:30am SSW 15 17 - - - - 10 Mostly clear - 18.2 1016.5 14.8
24/02:00am SSW 15 18 - - - - 10 Mostly clear - 17.5 1016.7 14.8
24/01:30am S 17 21 - - - - 10 Mostly clear - 17.5 1016.9 14.8
24/01:00am SSE 14 17 - - - - 8 Mostly clear - 17.7 1017.5 14.8
24/12:30am SSE 16 20 - - - - 6 Mostly clear Showers 17.3 1017.7 11.4
24/12:00am S 14 18 - - - - 12 Cloudy Showers 18.0 1017.6 11.0
 
Date/Time
EDT
Wind Sea
Height
m
Swell Vis
km
Cloud Weather Temp
°C
Press
MSL
hPa
Rain since
9am
mm
Dir  Spd
kts
Gust
kts
Height
m
Period
s
Dir
23/11:30pm S 17 21 - - - - 6 Mostly clear Showers 17.4 1017.7 9.8
23/11:13pm SSW 15 18 - - - - 10 Mostly clear Showers 18.2 1017.6 8.4
23/11:04pm SSW 13 18 - - - - 10 Mostly clear Showers 18.4 1017.7 8.2
23/11:00pm SSW 11 16 - - - - 10 Mostly clear - 18.4 1017.7 8.2
23/10:30pm SSW 12 17 - - - - 4 Mostly clear Showers 17.9 1017.8 6.6
23/10:06pm SSE 18 25 - - - - 4 Mostly clear Showers 18.4 1017.6 2.0
23/10:00pm S 17 22 - - - - 10 Mostly clear - 19.3 1017.4 0.4
23/09:30pm S 19 25 - - - - 10 Mostly clear Showers 19.9 1017.2 0.4
23/09:00pm S 20 26 - - - - 8 Cloudy Showers 19.9 1016.7 0.0
23/08:30pm S 22 29 - - - - 10 Mostly clear - 20.5 1016.1 0.0
23/08:00pm SSW 18 21 - - - - 10 Mostly clear - 19.8 1015.8 0.0
23/07:30pm S 20 26 - - - - 10 Mostly clear - 20.3 1015.4 0.0
23/07:00pm S 23 29 - - - - 10 Mostly clear - 20.3 1014.8 0.0
23/06:30pm S 22 28 - - - - 10 Partly cloudy - 20.4 1014.7 0.0
23/06:00pm S 21 27 - - - - 20 Mostly cloudy Fine 20.4 1014.6 0.0
23/05:30pm S 22 29 - - - - 10 Partly cloudy - 20.4 1014.6 0.0
23/05:00pm S 20 26 - - - - 10 Partly cloudy - 20.3 1014.5 0.0
23/04:30pm S 19 24 - - - - 10 Mostly clear - 20.2 1014.3 0.0
23/04:00pm S 18 23 - - - - 10 Partly cloudy - 20.3 1014.4 0.0
23/03:30pm S 18 23 - - - - 10 Partly cloudy - 20.4 1014.3 0.0
23/03:00pm S 21 27 - - - - 25 Mostly cloudy Fine 20.2 1014.2 0.0
23/02:30pm S 20 26 - - - - 10 Mostly clear - 20.4 1014.2 0.0
23/02:00pm S 20 26 - - - - 10 Mostly clear - 20.3 1014.1 0.0
23/01:30pm S 19 23 - - - - 10 Mostly clear - 20.0 1014.1 0.0
23/01:00pm S 20 26 - - - - 10 Mostly clear - 20.1 1014.1 0.0
23/12:30pm S 19 25 - - - - 10 Partly cloudy - 20.2 1014.3 0.0
23/12:00pm S 19 25 - - - - 22 Mostly cloudy Haze 20.2 1014.2 0.0
23/11:30am S 19 23 - - - - 10 Partly cloudy - 20.4 1014.2 0.0
23/11:00am SSE 19 24 - - - - 10 Mostly clear - 20.5 1013.9 0.0
23/10:30am SSE 19 26 - - - - 10 Partly cloudy - 20.5 1013.6 0.0
23/10:00am S 17 23 - - - - 10 Partly cloudy - 20.4 1013.2 0.0
23/09:30am S 18 24 - - - - 10 Mostly clear - 20.4 1012.8 0.0
23/09:00am S 20 26 - - - - 20 Mostly cloudy Haze 20.9 1012.5 0.0
23/08:30am SSE 19 26 - - - - 10 Mostly clear - 21.3 1012.1 0.0
23/08:00am SSE 19 23 - - - - 10 Mostly clear - 21.1 1011.7 0.0
23/07:30am S 19 25 - - - - 10 Mostly clear - 21.1 1011.5 0.0
23/07:00am S 20 26 - - - - 10 Mostly clear - 21.2 1011.1 0.0
23/06:30am S 17 22 - - - - 10 Mostly clear - 21.2 1010.7 0.0
23/06:00am SSW 16 19 - - - - 20 Mostly cloudy Haze 20.6 1010.1 0.0
23/05:30am SSW 16 21 - - - - 10 Mostly clear - 20.5 1010.0 0.0
23/05:00am SSW 15 21 - - - - 10 Mostly clear - 20.9 1009.7 0.0
23/04:30am SSW 15 19 - - - - 10 Mostly clear - 20.9 1009.5 0.0
23/04:21am S 16 26 - - - - 10 Mostly clear - 20.8 1009.5 0.0
23/04:00am S 18 22 - - - - 10 Mostly clear - 21.3 1009.4 0.0
23/03:30am S 18 25 - - - - 10 Mostly clear - 21.4 1009.4 0.0
23/03:00am S 19 25 - - - - 20 Mostly cloudy Haze 21.2 1009.1 0.0
23/02:30am S 20 26 - - - - 10 Partly cloudy - 21.6 1009.1 0.0
23/02:00am S 21 27 - - - - 10 Mostly clear - 21.8 1009.2 0.0
23/01:30am S 20 27 - - - - 10 Partly cloudy - 21.7 1009.4 0.0
23/01:15am S 20 30 - - - - 10 Mostly clear - 21.7 1009.5 0.0
23/01:00am S 19 26 - - - - 10 Mostly clear - 21.6 1009.6 0.0
23/12:30am S 23 28 - - - - 10 Mostly clear - 21.3 1009.8 0.0
23/12:00am S 22 28 - - - - 20 Mostly cloudy Distant precip. 21.0 1009.7 0.0
 
Date/Time
EDT
Wind Sea
Height
m
Swell Vis
km
Cloud Weather Temp
°C
Press
MSL
hPa
Rain since
9am
mm
Dir  Spd
kts
Gust
kts
Height
m
Period
s
Dir
22/11:30pm S 22 31 - - - - 10 Mostly clear - 21.4 1009.5 0.0
22/11:00pm S 22 30 - - - - 10 Mostly clear - 21.2 1009.6 0.0
22/10:30pm S 25 32 - - - - 10 Partly cloudy Drizzle 20.9 1009.5 0.0
22/10:00pm S 23 34 - - - - 10 Mostly cloudy - 20.2 1009.4 0.0
22/09:54pm S 24 34 - - - - 10 Mostly cloudy - 20.1 1009.4 0.0
22/09:30pm S 23 31 - - - - 10 Mostly clear - 20.3 1009.0 0.0
22/09:00pm S 25 31 - - - - 20 Mostly cloudy Distant precip. 20.8 1008.5 0.0
22/08:30pm S 25 32 - - - - 10 Mostly cloudy - 20.9 1008.0 0.0
22/08:00pm S 23 28 - - - - 10 Mostly cloudy - 21.2 1007.6 0.0
22/07:30pm S 21 26 - - - - 10 Partly cloudy - 21.6 1007.1 0.0
22/07:00pm S 21 27 - - - - 10 Partly cloudy - 21.9 1006.6 0.0
22/06:30pm S 21 27 - - - - 10 Mostly cloudy - 22.3 1006.1 0.0
22/06:00pm S 19 24 - - - - 20 Mostly cloudy Distant precip. 22.9 1005.9 0.0
22/05:45pm S 20 28 - - - - 10 Mostly cloudy - 23.2 1005.8 0.0
22/05:40pm S 19 25 - - - - 10 Partly cloudy - 23.2 1005.8 0.0
22/05:30pm S 19 24 - - - - 10 Partly cloudy - 23.9 1005.4 0.0
22/05:00pm S 18 23 - - - - 10 Partly cloudy - 24.0 1005.4 0.0

Other formats

Comma delimited format used in spreadsheet applications
http://www.bom.gov.au/fwo/IDN60701/IDN60701.94767.axf

JavaScript Object Notation format (JSON) in row-major order
http://www.bom.gov.au/fwo/IDN60701/IDN60701.94767.json

Data quality

Most of these data are generated automatically and are frequently updated. Quality checks on data are not normally performed. It is possible for incorrect values to appear. Refer to information at About Latest Weather Observations and please check the disclaimer before using these data.